sensor_id;sensor_type;location;lat;lon;timestamp;temperature;humidity
63317;DHT22;49822;41.468;13.560;2023-10-08T00:02:48;19.40;87.30
63317;DHT22;49822;41.468;13.560;2023-10-08T00:05:20;19.30;87.40
63317;DHT22;49822;41.468;13.560;2023-10-08T00:07:48;19.30;87.90
63317;DHT22;49822;41.468;13.560;2023-10-08T00:10:17;19.30;88.30
63317;DHT22;49822;41.468;13.560;2023-10-08T00:12:44;19.30;88.50
63317;DHT22;49822;41.468;13.560;2023-10-08T00:19:00;19.10;88.80
63317;DHT22;49822;41.468;13.560;2023-10-08T00:21:36;19.10;89.10
63317;DHT22;49822;41.468;13.560;2023-10-08T00:24:04;19.20;88.80
63317;DHT22;49822;41.468;13.560;2023-10-08T00:26:33;19.10;89.40
63317;DHT22;49822;41.468;13.560;2023-10-08T00:29:06;18.90;90.10
63317;DHT22;49822;41.468;13.560;2023-10-08T00:31:33;18.90;89.50
63317;DHT22;49822;41.468;13.560;2023-10-08T00:34:08;19.00;89.20
63317;DHT22;49822;41.468;13.560;2023-10-08T00:36:39;19.10;89.50
63317;DHT22;49822;41.468;13.560;2023-10-08T00:39:05;19.00;89.30
63317;DHT22;49822;41.468;13.560;2023-10-08T00:41:36;18.90;90.80
63317;DHT22;49822;41.468;13.560;2023-10-08T00:44:07;18.70;91.00
63317;DHT22;49822;41.468;13.560;2023-10-08T00:46:34;18.70;91.50
63317;DHT22;49822;41.468;13.560;2023-10-08T00:49:05;18.50;92.00
63317;DHT22;49822;41.468;13.560;2023-10-08T00:51:46;18.70;92.10
63317;DHT22;49822;41.468;13.560;2023-10-08T00:54:13;18.70;91.40
63317;DHT22;49822;41.468;13.560;2023-10-08T00:56:46;18.90;90.60
63317;DHT22;49822;41.468;13.560;2023-10-08T00:59:13;18.90;89.90
63317;DHT22;49822;41.468;13.560;2023-10-08T01:01:49;18.90;90.20
63317;DHT22;49822;41.468;13.560;2023-10-08T01:04:40;19.00;90.30
63317;DHT22;49822;41.468;13.560;2023-10-08T01:07:07;19.10;90.60
63317;DHT22;49822;41.468;13.560;2023-10-08T01:09:39;19.10;90.00
63317;DHT22;49822;41.468;13.560;2023-10-08T01:12:14;19.10;89.50
63317;DHT22;49822;41.468;13.560;2023-10-08T01:14:57;19.10;89.30
63317;DHT22;49822;41.468;13.560;2023-10-08T01:17:39;19.10;88.90
63317;DHT22;49822;41.468;13.560;2023-10-08T01:20:24;19.00;89.20
63317;DHT22;49822;41.468;13.560;2023-10-08T01:23:10;19.00;88.80
63317;DHT22;49822;41.468;13.560;2023-10-08T01:25:45;19.00;88.90
63317;DHT22;49822;41.468;13.560;2023-10-08T01:28:17;19.00;89.20
63317;DHT22;49822;41.468;13.560;2023-10-08T01:30:59;18.90;89.20
63317;DHT22;49822;41.468;13.560;2023-10-08T01:33:30;18.30;90.70
63317;DHT22;49822;41.468;13.560;2023-10-08T01:36:20;18.20;92.10
63317;DHT22;49822;41.468;13.560;2023-10-08T01:38:49;18.20;91.50
63317;DHT22;49822;41.468;13.560;2023-10-08T01:41:15;18.30;91.20
63317;DHT22;49822;41.468;13.560;2023-10-08T01:43:45;18.40;90.90
63317;DHT22;49822;41.468;13.560;2023-10-08T01:46:12;18.40;89.80
63317;DHT22;49822;41.468;13.560;2023-10-08T01:48:39;18.40;89.90
63317;DHT22;49822;41.468;13.560;2023-10-08T01:51:05;18.40;89.90
63317;DHT22;49822;41.468;13.560;2023-10-08T01:53:41;18.50;90.10
63317;DHT22;49822;41.468;13.560;2023-10-08T01:56:08;18.50;89.20
63317;DHT22;49822;41.468;13.560;2023-10-08T01:58:36;18.50;89.30
63317;DHT22;49822;41.468;13.560;2023-10-08T02:01:04;18.40;90.00
63317;DHT22;49822;41.468;13.560;2023-10-08T02:03:31;18.20;90.70
63317;DHT22;49822;41.468;13.560;2023-10-08T02:05:57;18.30;90.80
63317;DHT22;49822;41.468;13.560;2023-10-08T02:08:25;18.20;91.60
63317;DHT22;49822;41.468;13.560;2023-10-08T02:10:57;18.00;92.80
63317;DHT22;49822;41.468;13.560;2023-10-08T02:13:23;18.10;92.70
63317;DHT22;49822;41.468;13.560;2023-10-08T02:15:51;18.10;92.20
63317;DHT22;49822;41.468;13.560;2023-10-08T02:18:21;18.10;92.60
63317;DHT22;49822;41.468;13.560;2023-10-08T02:20:49;18.10;92.70
63317;DHT22;49822;41.468;13.560;2023-10-08T02:23:15;18.20;91.50
63317;DHT22;49822;41.468;13.560;2023-10-08T02:25:44;18.20;91.20
63317;DHT22;49822;41.468;13.560;2023-10-08T02:28:11;18.20;91.10
63317;DHT22;49822;41.468;13.560;2023-10-08T02:30:42;17.90;92.60
63317;DHT22;49822;41.468;13.560;2023-10-08T02:33:09;17.90;93.20
63317;DHT22;49822;41.468;13.560;2023-10-08T02:35:45;17.90;93.40
63317;DHT22;49822;41.468;13.560;2023-10-08T02:38:15;17.70;93.70
63317;DHT22;49822;41.468;13.560;2023-10-08T02:40:42;17.70;93.80
63317;DHT22;49822;41.468;13.560;2023-10-08T02:43:16;17.70;93.30
63317;DHT22;49822;41.468;13.560;2023-10-08T02:45:44;17.70;93.00
63317;DHT22;49822;41.468;13.560;2023-10-08T02:48:15;17.60;93.60
63317;DHT22;49822;41.468;13.560;2023-10-08T02:50:43;17.60;93.70
63317;DHT22;49822;41.468;13.560;2023-10-08T02:53:14;17.50;93.50
63317;DHT22;49822;41.468;13.560;2023-10-08T02:55:51;17.60;93.40
63317;DHT22;49822;41.468;13.560;2023-10-08T02:58:17;17.60;93.60
63317;DHT22;49822;41.468;13.560;2023-10-08T03:00:48;17.80;93.30
63317;DHT22;49822;41.468;13.560;2023-10-08T03:03:15;17.80;92.50
63317;DHT22;49822;41.468;13.560;2023-10-08T03:05:53;17.90;91.60
63317;DHT22;49822;41.468;13.560;2023-10-08T03:08:22;17.90;91.50
63317;DHT22;49822;41.468;13.560;2023-10-08T03:10:51;17.90;91.20
63317;DHT22;49822;41.468;13.560;2023-10-08T03:13:29;17.90;90.10
63317;DHT22;49822;41.468;13.560;2023-10-08T03:15:56;17.80;91.00
63317;DHT22;49822;41.468;13.560;2023-10-08T03:18:29;17.60;92.10
63317;DHT22;49822;41.468;13.560;2023-10-08T03:21:06;17.20;93.50
63317;DHT22;49822;41.468;13.560;2023-10-08T03:24:12;17.20;95.00
63317;DHT22;49822;41.468;13.560;2023-10-08T03:26:39;17.30;95.40
63317;DHT22;49822;41.468;13.560;2023-10-08T03:29:09;17.30;95.00
63317;DHT22;49822;41.468;13.560;2023-10-08T03:31:43;17.40;93.80
63317;DHT22;49822;41.468;13.560;2023-10-08T03:34:21;17.30;92.70
63317;DHT22;49822;41.468;13.560;2023-10-08T03:36:55;17.20;92.60
63317;DHT22;49822;41.468;13.560;2023-10-08T03:39:31;17.20;93.10
63317;DHT22;49822;41.468;13.560;2023-10-08T03:42:23;17.40;93.70
63317;DHT22;49822;41.468;13.560;2023-10-08T03:44:50;17.40;93.70
63317;DHT22;49822;41.468;13.560;2023-10-08T03:47:22;17.50;93.00
63317;DHT22;49822;41.468;13.560;2023-10-08T03:49:54;17.50;92.50
63317;DHT22;49822;41.468;13.560;2023-10-08T03:52:21;17.50;92.40
63317;DHT22;49822;41.468;13.560;2023-10-08T03:54:51;17.40;93.20
63317;DHT22;49822;41.468;13.560;2023-10-08T03:57:36;17.30;93.40
63317;DHT22;49822;41.468;13.560;2023-10-08T04:00:09;17.10;94.00
63317;DHT22;49822;41.468;13.560;2023-10-08T04:02:41;17.10;94.10
63317;DHT22;49822;41.468;13.560;2023-10-08T04:05:12;17.10;94.20
63317;DHT22;49822;41.468;13.560;2023-10-08T04:08:04;17.20;93.90
63317;DHT22;49822;41.468;13.560;2023-10-08T04:10:32;17.30;92.90
63317;DHT22;49822;41.468;13.560;2023-10-08T04:13:06;17.30;92.20
63317;DHT22;49822;41.468;13.560;2023-10-08T04:15:41;17.30;92.00
63317;DHT22;49822;41.468;13.560;2023-10-08T04:18:10;17.10;92.50
63317;DHT22;49822;41.468;13.560;2023-10-08T04:20:36;17.10;92.70
63317;DHT22;49822;41.468;13.560;2023-10-08T04:23:24;17.20;92.20
63317;DHT22;49822;41.468;13.560;2023-10-08T04:25:50;17.20;91.70
63317;DHT22;49822;41.468;13.560;2023-10-08T04:28:21;17.30;91.60
63317;DHT22;49822;41.468;13.560;2023-10-08T04:30:48;17.40;91.30
63317;DHT22;49822;41.468;13.560;2023-10-08T04:33:16;17.30;91.20
63317;DHT22;49822;41.468;13.560;2023-10-08T04:35:45;17.40;90.50
63317;DHT22;49822;41.468;13.560;2023-10-08T04:38:24;17.30;90.20
63317;DHT22;49822;41.468;13.560;2023-10-08T04:40:55;17.20;90.10
63317;DHT22;49822;41.468;13.560;2023-10-08T04:43:27;17.20;90.60
63317;DHT22;49822;41.468;13.560;2023-10-08T04:45:54;17.20;91.40
63317;DHT22;49822;41.468;13.560;2023-10-08T04:48:23;17.20;92.00
63317;DHT22;49822;41.468;13.560;2023-10-08T04:50:51;17.20;91.50
63317;DHT22;49822;41.468;13.560;2023-10-08T04:53:33;17.30;91.20
63317;DHT22;49822;41.468;13.560;2023-10-08T04:56:08;17.30;90.70
63317;DHT22;49822;41.468;13.560;2023-10-08T04:58:46;17.20;89.70
63317;DHT22;49822;41.468;13.560;2023-10-08T05:01:13;17.10;89.70
63317;DHT22;49822;41.468;13.560;2023-10-08T05:03:51;17.20;90.50
63317;DHT22;49822;41.468;13.560;2023-10-08T05:06:28;17.20;90.50
63317;DHT22;49822;41.468;13.560;2023-10-08T05:09:15;17.20;90.40
63317;DHT22;49822;41.468;13.560;2023-10-08T05:11:45;17.30;90.50
63317;DHT22;49822;41.468;13.560;2023-10-08T05:14:19;16.90;88.80
63317;DHT22;49822;41.468;13.560;2023-10-08T05:17:14;16.20;92.70
63317;DHT22;49822;41.468;13.560;2023-10-08T05:19:44;16.00;94.20
63317;DHT22;49822;41.468;13.560;2023-10-08T05:22:16;16.00;94.90
63317;DHT22;49822;41.468;13.560;2023-10-08T05:24:56;16.10;95.10
63317;DHT22;49822;41.468;13.560;2023-10-08T05:27:45;16.30;94.60
63317;DHT22;49822;41.468;13.560;2023-10-08T05:30:22;16.40;94.10
63317;DHT22;49822;41.468;13.560;2023-10-08T05:33:06;16.50;93.50
63317;DHT22;49822;41.468;13.560;2023-10-08T05:35:43;16.50;93.60
63317;DHT22;49822;41.468;13.560;2023-10-08T05:38:12;16.60;93.50
63317;DHT22;49822;41.468;13.560;2023-10-08T05:40:57;16.80;93.00
63317;DHT22;49822;41.468;13.560;2023-10-08T05:43:35;16.90;92.60
63317;DHT22;49822;41.468;13.560;2023-10-08T05:46:02;17.10;92.60
63317;DHT22;49822;41.468;13.560;2023-10-08T05:48:46;16.90;91.90
63317;DHT22;49822;41.468;13.560;2023-10-08T05:51:34;16.70;93.20
63317;DHT22;49822;41.468;13.560;2023-10-08T05:54:17;16.80;93.70
63317;DHT22;49822;41.468;13.560;2023-10-08T05:57:04;16.90;93.80
63317;DHT22;49822;41.468;13.560;2023-10-08T05:59:47;17.10;93.40
63317;DHT22;49822;41.468;13.560;2023-10-08T06:02:31;17.30;92.90
63317;DHT22;49822;41.468;13.560;2023-10-08T06:05:07;17.40;92.50
63317;DHT22;49822;41.468;13.560;2023-10-08T06:07:53;17.60;91.90
63317;DHT22;49822;41.468;13.560;2023-10-08T06:13:10;17.90;91.60
63317;DHT22;49822;41.468;13.560;2023-10-08T06:15:44;18.00;91.70
63317;DHT22;49822;41.468;13.560;2023-10-08T06:18:18;18.10;91.90
63317;DHT22;49822;41.468;13.560;2023-10-08T06:20:45;18.20;90.70
63317;DHT22;49822;41.468;13.560;2023-10-08T06:23:17;18.30;90.60
63317;DHT22;49822;41.468;13.560;2023-10-08T06:25:47;18.20;90.10
63317;DHT22;49822;41.468;13.560;2023-10-08T06:28:20;18.30;89.80
63317;DHT22;49822;41.468;13.560;2023-10-08T06:30:47;18.40;89.90
63317;DHT22;49822;41.468;13.560;2023-10-08T06:33:15;18.60;90.20
63317;DHT22;49822;41.468;13.560;2023-10-08T06:35:42;18.70;89.60
63317;DHT22;49822;41.468;13.560;2023-10-08T06:38:24;18.90;89.90
63317;DHT22;49822;41.468;13.560;2023-10-08T06:40:50;19.00;89.60
63317;DHT22;49822;41.468;13.560;2023-10-08T06:43:19;19.00;89.70
63317;DHT22;49822;41.468;13.560;2023-10-08T06:45:48;19.10;89.60
63317;DHT22;49822;41.468;13.560;2023-10-08T06:48:19;19.20;89.10
63317;DHT22;49822;41.468;13.560;2023-10-08T06:50:48;19.40;88.70
63317;DHT22;49822;41.468;13.560;2023-10-08T06:53:14;19.50;88.60
63317;DHT22;49822;41.468;13.560;2023-10-08T06:55:41;19.50;88.80
63317;DHT22;49822;41.468;13.560;2023-10-08T06:58:08;19.70;88.30
63317;DHT22;49822;41.468;13.560;2023-10-08T07:00:36;19.80;88.30
63317;DHT22;49822;41.468;13.560;2023-10-08T07:03:09;19.90;88.20
63317;DHT22;49822;41.468;13.560;2023-10-08T07:05:49;19.90;88.10
63317;DHT22;49822;41.468;13.560;2023-10-08T07:08:26;20.00;87.80
63317;DHT22;49822;41.468;13.560;2023-10-08T07:10:53;20.20;88.00
63317;DHT22;49822;41.468;13.560;2023-10-08T07:13:22;20.20;87.40
63317;DHT22;49822;41.468;13.560;2023-10-08T07:15:53;20.30;87.80
63317;DHT22;49822;41.468;13.560;2023-10-08T07:18:19;20.40;87.60
63317;DHT22;49822;41.468;13.560;2023-10-08T07:20:55;20.40;88.40
63317;DHT22;49822;41.468;13.560;2023-10-08T07:23:23;20.40;87.90
63317;DHT22;49822;41.468;13.560;2023-10-08T07:25:59;20.50;87.70
63317;DHT22;49822;41.468;13.560;2023-10-08T07:28:38;20.60;87.40
63317;DHT22;49822;41.468;13.560;2023-10-08T07:33:48;20.90;87.30
63317;DHT22;49822;41.468;13.560;2023-10-08T07:36:37;21.00;86.70
63317;DHT22;49822;41.468;13.560;2023-10-08T07:39:18;21.10;86.40
63317;DHT22;49822;41.468;13.560;2023-10-08T07:42:05;21.10;86.40
63317;DHT22;49822;41.468;13.560;2023-10-08T07:44:31;21.20;86.60
63317;DHT22;49822;41.468;13.560;2023-10-08T07:46:58;21.40;86.10
63317;DHT22;49822;41.468;13.560;2023-10-08T07:49:25;21.50;85.70
63317;DHT22;49822;41.468;13.560;2023-10-08T07:51:52;21.60;85.50
63317;DHT22;49822;41.468;13.560;2023-10-08T07:54:19;21.70;85.20
63317;DHT22;49822;41.468;13.560;2023-10-08T07:56:50;21.70;84.80
63317;DHT22;49822;41.468;13.560;2023-10-08T07:59:41;21.90;84.90
63317;DHT22;49822;41.468;13.560;2023-10-08T08:02:08;22.00;84.60
63317;DHT22;49822;41.468;13.560;2023-10-08T08:04:42;22.00;83.60
63317;DHT22;49822;41.468;13.560;2023-10-08T08:07:11;22.10;83.80
63317;DHT22;49822;41.468;13.560;2023-10-08T08:09:51;22.10;83.40
63317;DHT22;49822;41.468;13.560;2023-10-08T08:12:18;22.10;83.40
63317;DHT22;49822;41.468;13.560;2023-10-08T08:14:47;22.20;83.80
63317;DHT22;49822;41.468;13.560;2023-10-08T08:17:22;22.20;84.30
63317;DHT22;49822;41.468;13.560;2023-10-08T08:19:49;22.20;84.30
63317;DHT22;49822;41.468;13.560;2023-10-08T08:22:16;22.40;83.80
63317;DHT22;49822;41.468;13.560;2023-10-08T08:24:53;22.50;83.90
63317;DHT22;49822;41.468;13.560;2023-10-08T08:27:21;22.70;83.70
63317;DHT22;49822;41.468;13.560;2023-10-08T08:29:52;22.70;83.80
63317;DHT22;49822;41.468;13.560;2023-10-08T08:32:22;22.70;83.40
63317;DHT22;49822;41.468;13.560;2023-10-08T08:34:50;22.80;83.20
63317;DHT22;49822;41.468;13.560;2023-10-08T08:37:16;22.90;83.00
63317;DHT22;49822;41.468;13.560;2023-10-08T08:39:42;23.00;82.70
63317;DHT22;49822;41.468;13.560;2023-10-08T08:42:09;23.20;82.80
63317;DHT22;49822;41.468;13.560;2023-10-08T08:44:41;23.40;82.50
63317;DHT22;49822;41.468;13.560;2023-10-08T08:47:13;23.60;80.80
63317;DHT22;49822;41.468;13.560;2023-10-08T08:49:45;23.90;81.20
63317;DHT22;49822;41.468;13.560;2023-10-08T08:52:14;24.10;81.10
63317;DHT22;49822;41.468;13.560;2023-10-08T08:54:41;24.20;80.00
63317;DHT22;49822;41.468;13.560;2023-10-08T08:57:11;24.30;80.20
63317;DHT22;49822;41.468;13.560;2023-10-08T08:59:49;24.50;79.20
63317;DHT22;49822;41.468;13.560;2023-10-08T09:02:21;24.70;79.10
63317;DHT22;49822;41.468;13.560;2023-10-08T09:04:49;24.90;78.90
63317;DHT22;49822;41.468;13.560;2023-10-08T09:07:20;25.00;78.60
63317;DHT22;49822;41.468;13.560;2023-10-08T09:09:48;25.10;78.10
63317;DHT22;49822;41.468;13.560;2023-10-08T09:12:18;25.30;77.50
63317;DHT22;49822;41.468;13.560;2023-10-08T09:14:47;25.40;77.50
63317;DHT22;49822;41.468;13.560;2023-10-08T09:17:13;25.50;77.70
63317;DHT22;49822;41.468;13.560;2023-10-08T09:19:41;25.60;77.00
63317;DHT22;49822;41.468;13.560;2023-10-08T09:22:10;25.80;77.30
63317;DHT22;49822;41.468;13.560;2023-10-08T09:24:41;25.90;77.00
63317;DHT22;49822;41.468;13.560;2023-10-08T09:27:10;26.00;75.40
63317;DHT22;49822;41.468;13.560;2023-10-08T09:29:46;26.10;74.70
63317;DHT22;49822;41.468;13.560;2023-10-08T09:32:13;26.10;75.30
63317;DHT22;49822;41.468;13.560;2023-10-08T09:34:40;26.00;74.20
63317;DHT22;49822;41.468;13.560;2023-10-08T09:37:07;26.20;75.20
63317;DHT22;49822;41.468;13.560;2023-10-08T09:39:37;26.50;74.00
63317;DHT22;49822;41.468;13.560;2023-10-08T09:42:05;26.70;72.80
63317;DHT22;49822;41.468;13.560;2023-10-08T09:44:37;26.80;72.20
63317;DHT22;49822;41.468;13.560;2023-10-08T09:47:08;26.80;71.20
63317;DHT22;49822;41.468;13.560;2023-10-08T09:50:02;26.90;70.80
63317;DHT22;49822;41.468;13.560;2023-10-08T09:52:42;27.20;71.40
63317;DHT22;49822;41.468;13.560;2023-10-08T09:55:11;27.20;69.70
63317;DHT22;49822;41.468;13.560;2023-10-08T09:57:39;27.10;70.40
63317;DHT22;49822;41.468;13.560;2023-10-08T10:00:08;27.00;70.10
63317;DHT22;49822;41.468;13.560;2023-10-08T10:02:45;27.20;71.30
63317;DHT22;49822;41.468;13.560;2023-10-08T10:05:13;27.50;71.40
63317;DHT22;49822;41.468;13.560;2023-10-08T10:07:48;27.70;70.30
63317;DHT22;49822;41.468;13.560;2023-10-08T10:10:31;28.00;69.40
63317;DHT22;49822;41.468;13.560;2023-10-08T10:13:02;28.10;69.20
63317;DHT22;49822;41.468;13.560;2023-10-08T10:15:32;28.30;69.50
63317;DHT22;49822;41.468;13.560;2023-10-08T10:18:27;28.50;67.70
63317;DHT22;49822;41.468;13.560;2023-10-08T10:23:48;28.70;67.20
63317;DHT22;49822;41.468;13.560;2023-10-08T10:31:38;28.90;65.60
63317;DHT22;49822;41.468;13.560;2023-10-08T10:34:13;28.90;65.20
63317;DHT22;49822;41.468;13.560;2023-10-08T10:36:44;29.00;66.30
63317;DHT22;49822;41.468;13.560;2023-10-08T10:39:16;29.10;62.40
63317;DHT22;49822;41.468;13.560;2023-10-08T10:41:47;29.20;64.20
63317;DHT22;49822;41.468;13.560;2023-10-08T10:44:15;29.30;63.40
63317;DHT22;49822;41.468;13.560;2023-10-08T10:46:43;29.40;61.70
63317;DHT22;49822;41.468;13.560;2023-10-08T10:49:09;29.50;63.30
63317;DHT22;49822;41.468;13.560;2023-10-08T10:51:50;29.70;62.60
63317;DHT22;49822;41.468;13.560;2023-10-08T10:54:24;29.80;61.70
63317;DHT22;49822;41.468;13.560;2023-10-08T10:56:52;30.00;62.10
63317;DHT22;49822;41.468;13.560;2023-10-08T10:59:43;30.10;61.70
63317;DHT22;49822;41.468;13.560;2023-10-08T11:02:19;30.30;60.60
63317;DHT22;49822;41.468;13.560;2023-10-08T11:04:56;30.30;61.10
63317;DHT22;49822;41.468;13.560;2023-10-08T11:07:34;30.50;60.30
63317;DHT22;49822;41.468;13.560;2023-10-08T11:10:03;30.60;61.90
63317;DHT22;49822;41.468;13.560;2023-10-08T11:12:36;30.90;61.50
63317;DHT22;49822;41.468;13.560;2023-10-08T11:15:14;31.10;60.60
63317;DHT22;49822;41.468;13.560;2023-10-08T11:17:44;31.30;59.50
63317;DHT22;49822;41.468;13.560;2023-10-08T11:20:27;31.30;58.70
63317;DHT22;49822;41.468;13.560;2023-10-08T11:22:53;31.30;59.00
63317;DHT22;49822;41.468;13.560;2023-10-08T11:25:22;31.50;60.20
63317;DHT22;49822;41.468;13.560;2023-10-08T11:27:56;31.40;59.10
63317;DHT22;49822;41.468;13.560;2023-10-08T11:30:35;31.50;59.70
63317;DHT22;49822;41.468;13.560;2023-10-08T11:33:03;31.70;59.40
63317;DHT22;49822;41.468;13.560;2023-10-08T11:35:32;31.90;58.70
63317;DHT22;49822;41.468;13.560;2023-10-08T11:38:00;32.00;55.90
63317;DHT22;49822;41.468;13.560;2023-10-08T11:40:29;32.00;57.20
63317;DHT22;49822;41.468;13.560;2023-10-08T11:43:16;32.10;55.60
63317;DHT22;49822;41.468;13.560;2023-10-08T11:45:43;32.20;56.20
63317;DHT22;49822;41.468;13.560;2023-10-08T11:48:14;32.30;55.60
63317;DHT22;49822;41.468;13.560;2023-10-08T11:50:43;32.30;57.80
63317;DHT22;49822;41.468;13.560;2023-10-08T11:53:09;32.50;55.80
63317;DHT22;49822;41.468;13.560;2023-10-08T11:55:37;32.50;54.80
63317;DHT22;49822;41.468;13.560;2023-10-08T11:58:07;32.50;55.60
63317;DHT22;49822;41.468;13.560;2023-10-08T12:00:39;32.60;55.30
63317;DHT22;49822;41.468;13.560;2023-10-08T12:03:15;32.70;56.70
63317;DHT22;49822;41.468;13.560;2023-10-08T12:05:47;32.70;55.00
63317;DHT22;49822;41.468;13.560;2023-10-08T12:08:15;32.80;54.60
63317;DHT22;49822;41.468;13.560;2023-10-08T12:10:47;32.90;54.50
63317;DHT22;49822;41.468;13.560;2023-10-08T12:13:14;32.90;53.80
63317;DHT22;49822;41.468;13.560;2023-10-08T12:15:43;32.70;53.60
63317;DHT22;49822;41.468;13.560;2023-10-08T12:18:10;32.60;54.50
63317;DHT22;49822;41.468;13.560;2023-10-08T12:20:52;32.80;54.40
63317;DHT22;49822;41.468;13.560;2023-10-08T12:23:20;32.90;54.30
63317;DHT22;49822;41.468;13.560;2023-10-08T12:25:59;33.10;54.70
63317;DHT22;49822;41.468;13.560;2023-10-08T12:28:27;33.20;53.60
63317;DHT22;49822;41.468;13.560;2023-10-08T12:30:56;33.40;54.70
63317;DHT22;49822;41.468;13.560;2023-10-08T12:33:23;33.40;52.70
63317;DHT22;49822;41.468;13.560;2023-10-08T12:35:53;33.40;53.40
63317;DHT22;49822;41.468;13.560;2023-10-08T12:38:25;33.50;51.70
63317;DHT22;49822;41.468;13.560;2023-10-08T12:40:55;33.70;52.90
63317;DHT22;49822;41.468;13.560;2023-10-08T12:43:26;33.80;53.60
63317;DHT22;49822;41.468;13.560;2023-10-08T12:45:57;34.00;53.90
63317;DHT22;49822;41.468;13.560;2023-10-08T12:48:27;34.10;53.40
63317;DHT22;49822;41.468;13.560;2023-10-08T12:50:53;34.20;51.50
63317;DHT22;49822;41.468;13.560;2023-10-08T12:53:27;34.20;53.70
63317;DHT22;49822;41.468;13.560;2023-10-08T12:58:35;34.30;51.60
63317;DHT22;49822;41.468;13.560;2023-10-08T13:01:10;34.50;52.50
63317;DHT22;49822;41.468;13.560;2023-10-08T13:03:37;34.50;51.20
63317;DHT22;49822;41.468;13.560;2023-10-08T13:06:14;34.40;51.90
63317;DHT22;49822;41.468;13.560;2023-10-08T13:08:51;34.20;49.80
63317;DHT22;49822;41.468;13.560;2023-10-08T13:11:19;34.20;50.70
63317;DHT22;49822;41.468;13.560;2023-10-08T13:13:53;34.20;51.60
63317;DHT22;49822;41.468;13.560;2023-10-08T13:16:24;34.30;52.60
63317;DHT22;49822;41.468;13.560;2023-10-08T13:18:51;34.40;51.30
63317;DHT22;49822;41.468;13.560;2023-10-08T13:21:18;34.50;51.10
63317;DHT22;49822;41.468;13.560;2023-10-08T13:23:54;34.60;50.50
63317;DHT22;49822;41.468;13.560;2023-10-08T13:26:23;34.70;50.40
63317;DHT22;49822;41.468;13.560;2023-10-08T13:28:51;34.70;48.40
63317;DHT22;49822;41.468;13.560;2023-10-08T13:31:17;34.70;49.90
63317;DHT22;49822;41.468;13.560;2023-10-08T13:33:45;34.80;48.60
63317;DHT22;49822;41.468;13.560;2023-10-08T13:36:15;34.80;48.10
63317;DHT22;49822;41.468;13.560;2023-10-08T13:38:43;34.90;48.50
63317;DHT22;49822;41.468;13.560;2023-10-08T13:41:13;34.90;48.70
63317;DHT22;49822;41.468;13.560;2023-10-08T13:43:52;35.00;48.80
63317;DHT22;49822;41.468;13.560;2023-10-08T13:46:19;35.00;48.60
63317;DHT22;49822;41.468;13.560;2023-10-08T13:48:49;35.10;48.60
63317;DHT22;49822;41.468;13.560;2023-10-08T13:51:20;35.20;48.00
63317;DHT22;49822;41.468;13.560;2023-10-08T13:53:53;35.20;47.60
63317;DHT22;49822;41.468;13.560;2023-10-08T13:56:26;35.20;46.30
63317;DHT22;49822;41.468;13.560;2023-10-08T13:58:53;34.60;49.80
63317;DHT22;49822;41.468;13.560;2023-10-08T14:01:33;34.30;51.90
63317;DHT22;49822;41.468;13.560;2023-10-08T14:04:00;34.10;51.90
63317;DHT22;49822;41.468;13.560;2023-10-08T14:06:37;33.70;52.00
63317;DHT22;49822;41.468;13.560;2023-10-08T14:09:04;33.40;52.10
63317;DHT22;49822;41.468;13.560;2023-10-08T14:11:35;33.40;50.80
63317;DHT22;49822;41.468;13.560;2023-10-08T14:14:01;33.40;53.00
63317;DHT22;49822;41.468;13.560;2023-10-08T14:16:42;33.00;54.30
63317;DHT22;49822;41.468;13.560;2023-10-08T14:19:13;32.90;54.60
63317;DHT22;49822;41.468;13.560;2023-10-08T14:21:40;33.10;54.70
63317;DHT22;49822;41.468;13.560;2023-10-08T14:24:17;33.00;52.50
63317;DHT22;49822;41.468;13.560;2023-10-08T14:26:43;32.90;55.00
63317;DHT22;49822;41.468;13.560;2023-10-08T14:29:09;32.70;55.40
63317;DHT22;49822;41.468;13.560;2023-10-08T14:31:43;32.80;55.90
63317;DHT22;49822;41.468;13.560;2023-10-08T14:34:17;33.30;55.00
63317;DHT22;49822;41.468;13.560;2023-10-08T14:36:47;33.20;53.60
63317;DHT22;49822;41.468;13.560;2023-10-08T14:39:32;33.60;55.70
63317;DHT22;49822;41.468;13.560;2023-10-08T14:42:18;33.90;54.70
63317;DHT22;49822;41.468;13.560;2023-10-08T14:45:04;34.00;54.70
63317;DHT22;49822;41.468;13.560;2023-10-08T14:47:39;34.50;55.10
63317;DHT22;49822;41.468;13.560;2023-10-08T14:50:07;34.60;53.40
63317;DHT22;49822;41.468;13.560;2023-10-08T14:52:45;35.30;52.50
63317;DHT22;49822;41.468;13.560;2023-10-08T14:55:12;35.70;52.50
63317;DHT22;49822;41.468;13.560;2023-10-08T14:57:39;35.30;51.80
63317;DHT22;49822;41.468;13.560;2023-10-08T15:00:08;35.50;52.00
63317;DHT22;49822;41.468;13.560;2023-10-08T15:02:37;35.80;51.70
63317;DHT22;49822;41.468;13.560;2023-10-08T15:05:05;35.90;51.50
63317;DHT22;49822;41.468;13.560;2023-10-08T15:07:32;35.90;51.70
63317;DHT22;49822;41.468;13.560;2023-10-08T15:09:58;35.60;51.90
63317;DHT22;49822;41.468;13.560;2023-10-08T15:12:27;35.80;52.00
63317;DHT22;49822;41.468;13.560;2023-10-08T15:14:53;35.40;52.50
63317;DHT22;49822;41.468;13.560;2023-10-08T15:17:20;35.60;52.60
63317;DHT22;49822;41.468;13.560;2023-10-08T15:19:47;35.60;52.30
63317;DHT22;49822;41.468;13.560;2023-10-08T15:22:14;35.70;52.10
63317;DHT22;49822;41.468;13.560;2023-10-08T15:24:41;35.80;52.10
63317;DHT22;49822;41.468;13.560;2023-10-08T15:27:09;36.10;51.60
63317;DHT22;49822;41.468;13.560;2023-10-08T15:29:37;36.20;51.90
63317;DHT22;49822;41.468;13.560;2023-10-08T15:32:03;36.70;51.80
63317;DHT22;49822;41.468;13.560;2023-10-08T15:34:29;37.20;51.60
63317;DHT22;49822;41.468;13.560;2023-10-08T15:36:55;36.60;51.80
63317;DHT22;49822;41.468;13.560;2023-10-08T15:39:22;35.60;52.80
63317;DHT22;49822;41.468;13.560;2023-10-08T15:41:49;34.60;53.90
63317;DHT22;49822;41.468;13.560;2023-10-08T15:44:16;33.20;57.30
63317;DHT22;49822;41.468;13.560;2023-10-08T15:46:46;32.30;59.20
63317;DHT22;49822;41.468;13.560;2023-10-08T15:49:12;31.60;61.70
63317;DHT22;49822;41.468;13.560;2023-10-08T15:51:39;30.20;64.20
63317;DHT22;49822;41.468;13.560;2023-10-08T15:54:06;28.90;68.10
63317;DHT22;49822;41.468;13.560;2023-10-08T15:56:33;28.40;69.90
63317;DHT22;49822;41.468;13.560;2023-10-08T15:59:00;27.80;71.50
63317;DHT22;49822;41.468;13.560;2023-10-08T16:01:27;27.40;72.80
63317;DHT22;49822;41.468;13.560;2023-10-08T16:03:53;27.40;72.80
63317;DHT22;49822;41.468;13.560;2023-10-08T16:06:19;27.20;73.10